Morgan Ray — WDF6085 — position and weather

sailwx.info

Track history (hours):
 
Tides and Currents Weather Stations Pressure Air Temp Water Temp Dewpoint Dewpoint Depression Visibility Wind Speed Wind Dir Waves Ship Positions

Morgan Ray

Owner: Daigle Towing Service LLC., Belle Chasse, LA. More information available from US FCC via Universal Licensing System and Coast Guard Vessel Documentation Center.

Last reported at 2017-Feb-23 19:26 UTC. Time now 2017-Feb-27 01:56 UTC.
Position N 30°04' W 093°29'.

Length 20 m; draft 2 m.

Type: Tug. MMSI: 367470470.

Date/timePositionNaut miles runAvg speedWind from/ knotsBaromVisibWave heightAir tempDewpointWater temp
2017-Feb-23 19:26N 30°04' W 093°29'4 4.7
2017-Feb-23 18:33N 30°04' W 093°24'4 3.8
2017-Feb-23 17:33N 30°05' W 093°20'5 5.4
2017-Feb-23 16:33N 30°10' W 093°19'5 4.9
2017-Feb-23 15:33N 30°13' W 093°15'2 0.4
2017-Feb-23 11:33N 30°15' W 093°15'0 0.0
2017-Feb-23 10:33N 30°15' W 093°15'0 0.0
2017-Feb-23 09:33N 30°15' W 093°15'0 0.0
2017-Feb-23 08:33N 30°15' W 093°15'0 0.0
2017-Feb-23 07:23N 30°15' W 093°15'0 0.0
2017-Feb-23 06:33N 30°15' W 093°15'0 0.0
2017-Feb-23 05:33N 30°15' W 093°15'0 0.0
2017-Feb-23 04:32N 30°15' W 093°15'0 0.0
2017-Feb-23 03:33N 30°15' W 093°15'0 0.0
2017-Feb-23 02:33N 30°15' W 093°15'0 0.5
2017-Feb-23 01:30N 30°14' W 093°15'4 4.7
2017-Feb-23 00:33N 30°11' W 093°18'6 5.7
2017-Feb-22 23:33N 30°05' W 093°18'4 4.0
2017-Feb-22 22:33N 30°02' W 093°15'46 6.6
2017-Feb-22 15:30N 29°52' W 092°23'6 6.1
2017-Feb-22 14:33N 29°49' W 092°17'6 6.3
2017-Feb-22 13:33N 29°47' W 092°11'7 6.6
2017-Feb-22 12:33N 29°49' W 092°03'69 5.7
2017-Feb-22 00:33N 29°32' W 090°47'4 4.2
2017-Feb-21 23:33N 29°35' W 090°43'0 0.0
2017-Feb-21 22:33N 29°35' W 090°43'0 0.0
2017-Feb-21 21:33N 29°35' W 090°43'0 0.0
2017-Feb-21 20:33N 29°35' W 090°43'0 0.0
2017-Feb-21 19:33N 29°35' W 090°43'1 1.2
2017-Feb-21 18:33N 29°34' W 090°44'0 0.1
2017-Feb-21 17:33N 29°34' W 090°44'3 3.4
2017-Feb-21 16:33N 29°36' W 090°41'8 7.6
2017-Feb-21 15:28N 29°34' W 090°32'  
Track history (hours):
 
Tides and Currents Weather Stations Pressure Air Temp Water Temp Dewpoint Dewpoint Depression Visibility Wind Speed Wind Dir Waves Ship Positions

Morgan Ray

Owner: Daigle Towing Service LLC., Belle Chasse, LA. More information available from US FCC via Universal Licensing System and Coast Guard Vessel Documentation Center.

Last reported at 2017-Feb-23 19:26 UTC. Time now 2017-Feb-27 01:56 UTC.
Position N 30°04' W 093°29'.

Length 20 m; draft 2 m.

Type: Tug. MMSI: 367470470.

Date/timePositionNaut miles runAvg speedWind from/ knotsBaromVisibWave heightAir tempDewpointWater temp
2017-Feb-23 19:26N 30°04' W 093°29'4 4.7
2017-Feb-23 18:33N 30°04' W 093°24'4 3.8
2017-Feb-23 17:33N 30°05' W 093°20'5 5.4
2017-Feb-23 16:33N 30°10' W 093°19'5 4.9
2017-Feb-23 15:33N 30°13' W 093°15'2 0.4
2017-Feb-23 11:33N 30°15' W 093°15'0 0.0
2017-Feb-23 10:33N 30°15' W 093°15'0 0.0
2017-Feb-23 09:33N 30°15' W 093°15'0 0.0
2017-Feb-23 08:33N 30°15' W 093°15'0 0.0
2017-Feb-23 07:23N 30°15' W 093°15'0 0.0
2017-Feb-23 06:33N 30°15' W 093°15'0 0.0
2017-Feb-23 05:33N 30°15' W 093°15'0 0.0
2017-Feb-23 04:32N 30°15' W 093°15'0 0.0
2017-Feb-23 03:33N 30°15' W 093°15'0 0.0
2017-Feb-23 02:33N 30°15' W 093°15'0 0.5
2017-Feb-23 01:30N 30°14' W 093°15'4 4.7
2017-Feb-23 00:33N 30°11' W 093°18'6 5.7
2017-Feb-22 23:33N 30°05' W 093°18'4 4.0
2017-Feb-22 22:33N 30°02' W 093°15'46 6.6
2017-Feb-22 15:30N 29°52' W 092°23'6 6.1
2017-Feb-22 14:33N 29°49' W 092°17'6 6.3
2017-Feb-22 13:33N 29°47' W 092°11'7 6.6
2017-Feb-22 12:33N 29°49' W 092°03'69 5.7
2017-Feb-22 00:33N 29°32' W 090°47'4 4.2
2017-Feb-21 23:33N 29°35' W 090°43'0 0.0
2017-Feb-21 22:33N 29°35' W 090°43'0 0.0
2017-Feb-21 21:33N 29°35' W 090°43'0 0.0
2017-Feb-21 20:33N 29°35' W 090°43'0 0.0
2017-Feb-21 19:33N 29°35' W 090°43'1 1.2
2017-Feb-21 18:33N 29°34' W 090°44'0 0.1
2017-Feb-21 17:33N 29°34' W 090°44'3 3.4
2017-Feb-21 16:33N 29°36' W 090°41'8 7.6
2017-Feb-21 15:28N 29°34' W 090°32'  

Dump ship's entire track history